sensor_id;sensor_type;location;lat;lon;timestamp;pressure;altitude;pressure_sealevel;temperature;humidity
64354;BME280;50681;53.334;-6.536;2024-01-15T00:00:09;100979.06;;;5.28;100.00
64354;BME280;50681;53.334;-6.536;2024-01-15T00:02:35;100978.88;;;5.18;100.00
64354;BME280;50681;53.334;-6.536;2024-01-15T00:05:00;100967.03;;;5.30;100.00
64354;BME280;50681;53.334;-6.536;2024-01-15T00:07:26;100968.25;;;5.40;100.00
64354;BME280;50681;53.334;-6.536;2024-01-15T00:09:51;100972.13;;;5.32;100.00
64354;BME280;50681;53.334;-6.536;2024-01-15T00:12:16;100962.63;;;5.41;100.00
64354;BME280;50681;53.334;-6.536;2024-01-15T00:14:42;100968.41;;;5.33;100.00
64354;BME280;50681;53.334;-6.536;2024-01-15T00:17:07;100964.59;;;5.29;100.00
64354;BME280;50681;53.334;-6.536;2024-01-15T00:19:33;100963.56;;;5.30;100.00
64354;BME280;50681;53.334;-6.536;2024-01-15T00:21:58;100961.19;;;5.17;100.00
64354;BME280;50681;53.334;-6.536;2024-01-15T00:24:24;100955.97;;;5.10;100.00
64354;BME280;50681;53.334;-6.536;2024-01-15T00:26:50;100946.06;;;5.44;100.00
64354;BME280;50681;53.334;-6.536;2024-01-15T00:29:15;100951.59;;;5.04;100.00
64354;BME280;50681;53.334;-6.536;2024-01-15T00:31:40;100950.50;;;5.17;100.00
64354;BME280;50681;53.334;-6.536;2024-01-15T00:34:06;100957.13;;;4.97;100.00
64354;BME280;50681;53.334;-6.536;2024-01-15T00:36:31;100958.19;;;5.13;100.00
64354;BME280;50681;53.334;-6.536;2024-01-15T00:38:57;100963.78;;;5.11;100.00
64354;BME280;50681;53.334;-6.536;2024-01-15T00:41:22;100958.53;;;5.17;100.00
64354;BME280;50681;53.334;-6.536;2024-01-15T00:43:48;100951.91;;;4.90;100.00
64354;BME280;50681;53.334;-6.536;2024-01-15T00:46:14;100951.44;;;5.27;100.00
64354;BME280;50681;53.334;-6.536;2024-01-15T00:48:40;100948.19;;;4.91;100.00
64354;BME280;50681;53.334;-6.536;2024-01-15T00:51:05;100943.78;;;4.68;100.00
64354;BME280;50681;53.334;-6.536;2024-01-15T00:53:31;100940.72;;;4.76;100.00
64354;BME280;50681;53.334;-6.536;2024-01-15T00:55:58;100945.38;;;4.69;100.00
64354;BME280;50681;53.334;-6.536;2024-01-15T00:58:25;100938.22;;;4.87;100.00
64354;BME280;50681;53.334;-6.536;2024-01-15T01:00:50;100929.00;;;4.65;100.00
64354;BME280;50681;53.334;-6.536;2024-01-15T01:03:16;100941.88;;;4.68;100.00
64354;BME280;50681;53.334;-6.536;2024-01-15T01:05:44;100941.47;;;4.89;100.00
64354;BME280;50681;53.334;-6.536;2024-01-15T01:08:10;100937.03;;;4.65;100.00
64354;BME280;50681;53.334;-6.536;2024-01-15T01:10:35;100939.25;;;4.85;100.00
64354;BME280;50681;53.334;-6.536;2024-01-15T01:13:01;100931.44;;;4.67;100.00
64354;BME280;50681;53.334;-6.536;2024-01-15T01:15:26;100934.78;;;4.74;100.00
64354;BME280;50681;53.334;-6.536;2024-01-15T01:17:52;100917.72;;;4.63;100.00
64354;BME280;50681;53.334;-6.536;2024-01-15T01:20:18;100927.75;;;4.56;100.00
64354;BME280;50681;53.334;-6.536;2024-01-15T01:22:43;100917.78;;;4.51;100.00
64354;BME280;50681;53.334;-6.536;2024-01-15T01:25:08;100913.59;;;4.55;100.00
64354;BME280;50681;53.334;-6.536;2024-01-15T01:27:35;100927.53;;;4.58;100.00
64354;BME280;50681;53.334;-6.536;2024-01-15T01:30:00;100923.53;;;4.31;100.00
64354;BME280;50681;53.334;-6.536;2024-01-15T01:32:26;100929.53;;;4.79;100.00
64354;BME280;50681;53.334;-6.536;2024-01-15T01:34:51;100924.88;;;4.75;100.00
64354;BME280;50681;53.334;-6.536;2024-01-15T01:37:18;100917.50;;;4.65;100.00
64354;BME280;50681;53.334;-6.536;2024-01-15T01:39:43;100924.69;;;5.10;100.00
64354;BME280;50681;53.334;-6.536;2024-01-15T01:42:09;100912.66;;;4.50;100.00
64354;BME280;50681;53.334;-6.536;2024-01-15T01:44:35;100910.81;;;4.50;100.00
64354;BME280;50681;53.334;-6.536;2024-01-15T01:47:01;100924.97;;;4.80;100.00
64354;BME280;50681;53.334;-6.536;2024-01-15T01:49:27;100915.09;;;4.80;100.00
64354;BME280;50681;53.334;-6.536;2024-01-15T01:51:55;100907.75;;;4.59;100.00
64354;BME280;50681;53.334;-6.536;2024-01-15T01:54:21;100921.84;;;5.00;100.00
64354;BME280;50681;53.334;-6.536;2024-01-15T01:56:47;100929.13;;;5.05;100.00
64354;BME280;50681;53.334;-6.536;2024-01-15T01:59:13;100922.25;;;4.92;100.00
64354;BME280;50681;53.334;-6.536;2024-01-15T02:01:40;100920.75;;;4.67;100.00
64354;BME280;50681;53.334;-6.536;2024-01-15T02:04:06;100925.44;;;4.60;100.00
64354;BME280;50681;53.334;-6.536;2024-01-15T02:06:31;100912.81;;;4.72;100.00
64354;BME280;50681;53.334;-6.536;2024-01-15T02:08:57;100907.28;;;4.62;100.00
64354;BME280;50681;53.334;-6.536;2024-01-15T02:11:29;100913.91;;;4.59;100.00
64354;BME280;50681;53.334;-6.536;2024-01-15T02:13:54;100915.22;;;4.28;100.00
64354;BME280;50681;53.334;-6.536;2024-01-15T02:16:21;100905.84;;;4.71;100.00
64354;BME280;50681;53.334;-6.536;2024-01-15T02:18:46;100915.53;;;4.60;100.00
64354;BME280;50681;53.334;-6.536;2024-01-15T02:21:12;100917.19;;;4.78;100.00
64354;BME280;50681;53.334;-6.536;2024-01-15T02:23:38;100902.88;;;4.55;100.00
64354;BME280;50681;53.334;-6.536;2024-01-15T02:26:04;100918.81;;;4.96;100.00
64354;BME280;50681;53.334;-6.536;2024-01-15T02:28:30;100906.19;;;4.92;100.00
64354;BME280;50681;53.334;-6.536;2024-01-15T02:30:57;100909.41;;;4.77;100.00
64354;BME280;50681;53.334;-6.536;2024-01-15T02:33:23;100916.06;;;4.74;100.00
64354;BME280;50681;53.334;-6.536;2024-01-15T02:35:48;100909.00;;;4.85;100.00
64354;BME280;50681;53.334;-6.536;2024-01-15T02:38:15;100906.97;;;4.75;100.00
64354;BME280;50681;53.334;-6.536;2024-01-15T02:40:41;100904.13;;;4.82;100.00
64354;BME280;50681;53.334;-6.536;2024-01-15T02:43:07;100903.66;;;4.68;100.00
64354;BME280;50681;53.334;-6.536;2024-01-15T02:45:32;100903.72;;;4.73;100.00
64354;BME280;50681;53.334;-6.536;2024-01-15T02:47:58;100898.69;;;4.77;100.00
64354;BME280;50681;53.334;-6.536;2024-01-15T02:50:23;100898.16;;;4.46;100.00
64354;BME280;50681;53.334;-6.536;2024-01-15T02:52:49;100899.06;;;4.51;100.00
64354;BME280;50681;53.334;-6.536;2024-01-15T02:55:14;100889.44;;;4.50;100.00
64354;BME280;50681;53.334;-6.536;2024-01-15T02:57:39;100895.34;;;4.23;100.00
64354;BME280;50681;53.334;-6.536;2024-01-15T03:00:05;100894.00;;;4.38;100.00
64354;BME280;50681;53.334;-6.536;2024-01-15T03:02:32;100890.28;;;4.10;100.00
64354;BME280;50681;53.334;-6.536;2024-01-15T03:04:58;100892.88;;;4.34;100.00
64354;BME280;50681;53.334;-6.536;2024-01-15T03:07:31;100895.97;;;4.43;100.00
64354;BME280;50681;53.334;-6.536;2024-01-15T03:09:57;100901.66;;;4.46;100.00
64354;BME280;50681;53.334;-6.536;2024-01-15T03:12:38;100899.03;;;4.80;100.00
64354;BME280;50681;53.334;-6.536;2024-01-15T03:15:03;100900.13;;;4.50;100.00
64354;BME280;50681;53.334;-6.536;2024-01-15T03:17:29;100882.16;;;4.34;100.00
64354;BME280;50681;53.334;-6.536;2024-01-15T03:19:54;100899.66;;;4.53;100.00
64354;BME280;50681;53.334;-6.536;2024-01-15T03:22:20;100899.34;;;4.38;100.00
64354;BME280;50681;53.334;-6.536;2024-01-15T03:24:45;100894.81;;;4.38;100.00
64354;BME280;50681;53.334;-6.536;2024-01-15T03:27:11;100890.00;;;4.23;100.00
64354;BME280;50681;53.334;-6.536;2024-01-15T03:29:36;100900.69;;;4.23;100.00
64354;BME280;50681;53.334;-6.536;2024-01-15T03:32:01;100897.25;;;4.40;100.00
64354;BME280;50681;53.334;-6.536;2024-01-15T03:34:27;100913.69;;;4.32;100.00
64354;BME280;50681;53.334;-6.536;2024-01-15T03:36:52;100898.19;;;4.05;100.00
64354;BME280;50681;53.334;-6.536;2024-01-15T03:39:18;100894.47;;;4.06;100.00
64354;BME280;50681;53.334;-6.536;2024-01-15T03:41:43;100899.75;;;4.30;100.00
64354;BME280;50681;53.334;-6.536;2024-01-15T03:44:08;100895.91;;;4.25;100.00
64354;BME280;50681;53.334;-6.536;2024-01-15T03:46:34;100895.34;;;4.52;100.00
64354;BME280;50681;53.334;-6.536;2024-01-15T03:48:59;100875.38;;;4.14;100.00
64354;BME280;50681;53.334;-6.536;2024-01-15T03:51:25;100897.81;;;4.13;100.00
64354;BME280;50681;53.334;-6.536;2024-01-15T03:53:52;100894.69;;;4.04;100.00
64354;BME280;50681;53.334;-6.536;2024-01-15T03:56:18;100885.78;;;3.99;100.00
64354;BME280;50681;53.334;-6.536;2024-01-15T03:58:43;100883.22;;;3.92;100.00
64354;BME280;50681;53.334;-6.536;2024-01-15T04:01:09;100883.50;;;4.19;100.00
64354;BME280;50681;53.334;-6.536;2024-01-15T04:03:38;100880.47;;;4.45;100.00
64354;BME280;50681;53.334;-6.536;2024-01-15T04:06:04;100869.19;;;4.25;100.00
64354;BME280;50681;53.334;-6.536;2024-01-15T04:08:29;100875.56;;;3.95;100.00
64354;BME280;50681;53.334;-6.536;2024-01-15T04:10:55;100864.09;;;3.83;100.00
64354;BME280;50681;53.334;-6.536;2024-01-15T04:13:21;100856.19;;;3.88;100.00
64354;BME280;50681;53.334;-6.536;2024-01-15T04:15:46;100852.81;;;4.22;100.00
64354;BME280;50681;53.334;-6.536;2024-01-15T04:18:12;100858.25;;;4.27;100.00
64354;BME280;50681;53.334;-6.536;2024-01-15T04:20:37;100861.66;;;4.22;100.00
64354;BME280;50681;53.334;-6.536;2024-01-15T04:23:03;100866.13;;;4.05;100.00
64354;BME280;50681;53.334;-6.536;2024-01-15T04:25:29;100868.53;;;4.06;100.00
64354;BME280;50681;53.334;-6.536;2024-01-15T04:27:54;100865.19;;;4.11;100.00
64354;BME280;50681;53.334;-6.536;2024-01-15T04:30:20;100861.78;;;4.16;100.00
64354;BME280;50681;53.334;-6.536;2024-01-15T04:32:45;100873.19;;;4.11;100.00
64354;BME280;50681;53.334;-6.536;2024-01-15T04:35:11;100864.41;;;3.87;100.00
64354;BME280;50681;53.334;-6.536;2024-01-15T04:37:37;100873.88;;;4.06;100.00
64354;BME280;50681;53.334;-6.536;2024-01-15T04:40:03;100864.03;;;4.07;100.00
64354;BME280;50681;53.334;-6.536;2024-01-15T04:42:29;100858.75;;;3.83;100.00
64354;BME280;50681;53.334;-6.536;2024-01-15T04:44:54;100862.84;;;3.62;100.00
64354;BME280;50681;53.334;-6.536;2024-01-15T04:47:19;100864.78;;;3.90;100.00
64354;BME280;50681;53.334;-6.536;2024-01-15T04:49:45;100870.94;;;3.79;100.00
64354;BME280;50681;53.334;-6.536;2024-01-15T04:52:10;100871.09;;;3.60;100.00
64354;BME280;50681;53.334;-6.536;2024-01-15T04:54:36;100876.41;;;3.84;100.00
64354;BME280;50681;53.334;-6.536;2024-01-15T04:57:02;100873.34;;;3.92;100.00
64354;BME280;50681;53.334;-6.536;2024-01-15T04:59:27;100874.63;;;3.90;100.00
64354;BME280;50681;53.334;-6.536;2024-01-15T05:01:53;100871.63;;;3.86;100.00
64354;BME280;50681;53.334;-6.536;2024-01-15T05:04:18;100867.75;;;3.94;100.00
64354;BME280;50681;53.334;-6.536;2024-01-15T05:06:44;100884.53;;;3.89;100.00
64354;BME280;50681;53.334;-6.536;2024-01-15T05:09:09;100883.47;;;3.78;100.00
64354;BME280;50681;53.334;-6.536;2024-01-15T05:11:34;100899.19;;;3.75;100.00
64354;BME280;50681;53.334;-6.536;2024-01-15T05:14:00;100913.78;;;3.84;100.00
64354;BME280;50681;53.334;-6.536;2024-01-15T05:16:25;100906.13;;;3.64;100.00
64354;BME280;50681;53.334;-6.536;2024-01-15T05:18:51;100902.66;;;3.87;100.00
64354;BME280;50681;53.334;-6.536;2024-01-15T05:21:16;100896.19;;;3.35;100.00
64354;BME280;50681;53.334;-6.536;2024-01-15T05:23:41;100884.28;;;2.96;100.00
64354;BME280;50681;53.334;-6.536;2024-01-15T05:26:07;100886.75;;;2.55;100.00
64354;BME280;50681;53.334;-6.536;2024-01-15T05:28:34;100869.00;;;2.91;100.00
64354;BME280;50681;53.334;-6.536;2024-01-15T05:30:59;100874.00;;;2.99;100.00
64354;BME280;50681;53.334;-6.536;2024-01-15T05:33:25;100885.72;;;2.98;100.00
64354;BME280;50681;53.334;-6.536;2024-01-15T05:35:51;100895.47;;;3.28;100.00
64354;BME280;50681;53.334;-6.536;2024-01-15T05:38:16;100901.88;;;3.51;100.00
64354;BME280;50681;53.334;-6.536;2024-01-15T05:40:42;100913.34;;;3.63;100.00
64354;BME280;50681;53.334;-6.536;2024-01-15T05:43:07;100916.84;;;3.52;100.00
64354;BME280;50681;53.334;-6.536;2024-01-15T05:45:35;100913.25;;;3.58;100.00
64354;BME280;50681;53.334;-6.536;2024-01-15T05:48:03;100922.41;;;3.38;100.00
64354;BME280;50681;53.334;-6.536;2024-01-15T05:50:29;100909.50;;;3.23;100.00
64354;BME280;50681;53.334;-6.536;2024-01-15T05:52:54;100889.41;;;2.97;100.00
64354;BME280;50681;53.334;-6.536;2024-01-15T05:55:22;100887.91;;;3.13;100.00
64354;BME280;50681;53.334;-6.536;2024-01-15T05:57:47;100887.44;;;3.16;100.00
64354;BME280;50681;53.334;-6.536;2024-01-15T06:00:13;100883.41;;;3.14;100.00
64354;BME280;50681;53.334;-6.536;2024-01-15T06:02:39;100893.72;;;2.98;100.00
64354;BME280;50681;53.334;-6.536;2024-01-15T06:05:04;100898.50;;;3.44;100.00
64354;BME280;50681;53.334;-6.536;2024-01-15T06:07:30;100911.84;;;3.20;100.00
64354;BME280;50681;53.334;-6.536;2024-01-15T06:09:55;100913.81;;;3.24;100.00
64354;BME280;50681;53.334;-6.536;2024-01-15T06:12:22;100917.75;;;3.22;100.00
64354;BME280;50681;53.334;-6.536;2024-01-15T06:14:48;100898.25;;;3.09;100.00
64354;BME280;50681;53.334;-6.536;2024-01-15T06:17:13;100904.03;;;3.18;100.00
64354;BME280;50681;53.334;-6.536;2024-01-15T06:19:39;100881.38;;;2.85;100.00
64354;BME280;50681;53.334;-6.536;2024-01-15T06:22:04;100867.78;;;2.63;100.00
64354;BME280;50681;53.334;-6.536;2024-01-15T06:24:30;100862.25;;;2.76;100.00
64354;BME280;50681;53.334;-6.536;2024-01-15T06:26:55;100872.00;;;2.83;100.00
64354;BME280;50681;53.334;-6.536;2024-01-15T06:29:20;100887.56;;;3.09;100.00
64354;BME280;50681;53.334;-6.536;2024-01-15T06:31:46;100890.03;;;3.23;100.00
64354;BME280;50681;53.334;-6.536;2024-01-15T06:34:14;100905.66;;;3.19;100.00
64354;BME280;50681;53.334;-6.536;2024-01-15T06:36:40;100910.47;;;2.44;100.00
64354;BME280;50681;53.334;-6.536;2024-01-15T06:39:05;100912.88;;;3.19;100.00
64354;BME280;50681;53.334;-6.536;2024-01-15T06:41:30;100922.16;;;3.28;100.00
64354;BME280;50681;53.334;-6.536;2024-01-15T06:43:56;100920.56;;;3.51;100.00
64354;BME280;50681;53.334;-6.536;2024-01-15T06:46:22;100912.66;;;3.44;100.00
64354;BME280;50681;53.334;-6.536;2024-01-15T06:48:47;100890.59;;;2.59;100.00
64354;BME280;50681;53.334;-6.536;2024-01-15T06:51:15;100900.69;;;3.35;100.00
64354;BME280;50681;53.334;-6.536;2024-01-15T06:53:40;100897.53;;;3.02;100.00
64354;BME280;50681;53.334;-6.536;2024-01-15T06:56:07;100896.84;;;3.07;100.00
64354;BME280;50681;53.334;-6.536;2024-01-15T06:58:32;100902.09;;;3.14;100.00
64354;BME280;50681;53.334;-6.536;2024-01-15T07:00:58;100908.22;;;3.02;100.00
64354;BME280;50681;53.334;-6.536;2024-01-15T07:03:23;100913.16;;;2.87;100.00
64354;BME280;50681;53.334;-6.536;2024-01-15T07:05:49;100916.50;;;2.70;100.00
64354;BME280;50681;53.334;-6.536;2024-01-15T07:08:14;100924.16;;;2.78;100.00
64354;BME280;50681;53.334;-6.536;2024-01-15T07:10:40;100922.69;;;2.94;100.00
64354;BME280;50681;53.334;-6.536;2024-01-15T07:13:05;100926.66;;;3.04;100.00
64354;BME280;50681;53.334;-6.536;2024-01-15T07:15:30;100921.81;;;2.70;100.00
64354;BME280;50681;53.334;-6.536;2024-01-15T07:17:56;100914.44;;;2.84;100.00
64354;BME280;50681;53.334;-6.536;2024-01-15T07:20:21;100903.41;;;2.19;100.00
64354;BME280;50681;53.334;-6.536;2024-01-15T07:22:47;100922.63;;;2.40;100.00
64354;BME280;50681;53.334;-6.536;2024-01-15T07:25:12;100934.44;;;1.95;100.00
64354;BME280;50681;53.334;-6.536;2024-01-15T07:27:38;100917.31;;;2.40;100.00
64354;BME280;50681;53.334;-6.536;2024-01-15T07:30:03;100936.00;;;2.83;100.00
64354;BME280;50681;53.334;-6.536;2024-01-15T07:32:30;100930.94;;;2.93;100.00
64354;BME280;50681;53.334;-6.536;2024-01-15T07:34:56;100947.91;;;3.11;100.00
64354;BME280;50681;53.334;-6.536;2024-01-15T07:37:22;100944.88;;;3.07;100.00
64354;BME280;50681;53.334;-6.536;2024-01-15T07:39:49;100948.88;;;3.28;100.00
64354;BME280;50681;53.334;-6.536;2024-01-15T07:42:14;100942.44;;;3.17;100.00
64354;BME280;50681;53.334;-6.536;2024-01-15T07:44:40;100938.75;;;3.18;100.00
64354;BME280;50681;53.334;-6.536;2024-01-15T07:47:05;100953.63;;;3.26;100.00
64354;BME280;50681;53.334;-6.536;2024-01-15T07:49:31;100950.50;;;3.29;100.00
64354;BME280;50681;53.334;-6.536;2024-01-15T07:51:56;100953.69;;;3.07;100.00
64354;BME280;50681;53.334;-6.536;2024-01-15T07:54:22;100961.72;;;3.19;100.00
64354;BME280;50681;53.334;-6.536;2024-01-15T07:56:59;100959.66;;;3.45;100.00
64354;BME280;50681;53.334;-6.536;2024-01-15T07:59:26;100966.84;;;3.21;100.00
64354;BME280;50681;53.334;-6.536;2024-01-15T08:01:52;100968.13;;;3.42;100.00
64354;BME280;50681;53.334;-6.536;2024-01-15T08:04:17;100963.59;;;3.19;100.00
64354;BME280;50681;53.334;-6.536;2024-01-15T08:06:43;100971.72;;;3.36;100.00
64354;BME280;50681;53.334;-6.536;2024-01-15T08:09:09;100962.69;;;3.49;100.00
64354;BME280;50681;53.334;-6.536;2024-01-15T08:11:35;100976.38;;;3.76;100.00
64354;BME280;50681;53.334;-6.536;2024-01-15T08:14:00;100964.06;;;3.75;100.00
64354;BME280;50681;53.334;-6.536;2024-01-15T08:16:26;100970.94;;;3.83;100.00
64354;BME280;50681;53.334;-6.536;2024-01-15T08:18:52;100967.44;;;3.82;100.00
64354;BME280;50681;53.334;-6.536;2024-01-15T08:21:18;100959.44;;;3.82;100.00
64354;BME280;50681;53.334;-6.536;2024-01-15T08:23:44;100961.97;;;3.77;100.00
64354;BME280;50681;53.334;-6.536;2024-01-15T08:26:10;100954.00;;;3.65;100.00
64354;BME280;50681;53.334;-6.536;2024-01-15T08:28:35;100964.56;;;3.60;100.00
64354;BME280;50681;53.334;-6.536;2024-01-15T08:31:01;100965.00;;;3.45;100.00
64354;BME280;50681;53.334;-6.536;2024-01-15T08:33:26;100956.53;;;3.36;100.00
64354;BME280;50681;53.334;-6.536;2024-01-15T08:35:51;100959.78;;;3.50;100.00
64354;BME280;50681;53.334;-6.536;2024-01-15T08:38:18;100970.94;;;3.59;100.00
64354;BME280;50681;53.334;-6.536;2024-01-15T08:40:44;100978.34;;;3.33;100.00
64354;BME280;50681;53.334;-6.536;2024-01-15T08:43:09;100980.06;;;3.16;100.00
64354;BME280;50681;53.334;-6.536;2024-01-15T08:45:35;100980.06;;;3.16;100.00
64354;BME280;50681;53.334;-6.536;2024-01-15T08:48:00;100973.88;;;3.03;100.00
64354;BME280;50681;53.334;-6.536;2024-01-15T08:50:26;100983.75;;;3.15;100.00
64354;BME280;50681;53.334;-6.536;2024-01-15T08:52:52;100980.31;;;3.26;100.00
64354;BME280;50681;53.334;-6.536;2024-01-15T08:55:17;100979.97;;;3.34;100.00
64354;BME280;50681;53.334;-6.536;2024-01-15T08:57:42;100986.69;;;3.25;100.00
64354;BME280;50681;53.334;-6.536;2024-01-15T09:00:08;100997.16;;;3.38;100.00
64354;BME280;50681;53.334;-6.536;2024-01-15T09:02:34;101001.53;;;3.33;100.00
64354;BME280;50681;53.334;-6.536;2024-01-15T09:05:01;100999.56;;;3.40;100.00
64354;BME280;50681;53.334;-6.536;2024-01-15T09:07:26;101003.16;;;3.34;100.00
64354;BME280;50681;53.334;-6.536;2024-01-15T09:09:52;100997.88;;;3.46;100.00
64354;BME280;50681;53.334;-6.536;2024-01-15T09:12:18;101000.28;;;3.35;100.00
64354;BME280;50681;53.334;-6.536;2024-01-15T09:14:44;101010.63;;;3.44;100.00
64354;BME280;50681;53.334;-6.536;2024-01-15T09:17:09;100996.00;;;3.46;100.00
64354;BME280;50681;53.334;-6.536;2024-01-15T09:19:37;100998.91;;;3.57;100.00
64354;BME280;50681;53.334;-6.536;2024-01-15T09:22:04;101004.56;;;3.36;100.00
64354;BME280;50681;53.334;-6.536;2024-01-15T09:24:29;101005.28;;;3.44;100.00
64354;BME280;50681;53.334;-6.536;2024-01-15T09:26:55;101001.81;;;3.55;100.00
64354;BME280;50681;53.334;-6.536;2024-01-15T09:29:20;101006.91;;;3.57;100.00
64354;BME280;50681;53.334;-6.536;2024-01-15T09:31:46;101002.75;;;3.61;100.00
64354;BME280;50681;53.334;-6.536;2024-01-15T09:34:11;101017.13;;;3.48;100.00
64354;BME280;50681;53.334;-6.536;2024-01-15T09:36:40;101024.56;;;3.58;100.00
64354;BME280;50681;53.334;-6.536;2024-01-15T09:39:06;101032.44;;;3.41;100.00
64354;BME280;50681;53.334;-6.536;2024-01-15T09:41:36;101026.66;;;3.56;100.00
64354;BME280;50681;53.334;-6.536;2024-01-15T09:44:04;101026.56;;;3.74;100.00
64354;BME280;50681;53.334;-6.536;2024-01-15T09:46:40;101027.97;;;4.01;100.00
64354;BME280;50681;53.334;-6.536;2024-01-15T09:49:06;101032.78;;;3.44;100.00
64354;BME280;50681;53.334;-6.536;2024-01-15T09:51:32;101036.91;;;3.71;100.00
64354;BME280;50681;53.334;-6.536;2024-01-15T09:53:58;101032.94;;;3.73;100.00
64354;BME280;50681;53.334;-6.536;2024-01-15T09:56:24;101030.03;;;3.87;100.00
64354;BME280;50681;53.334;-6.536;2024-01-15T09:58:50;101023.91;;;4.10;100.00
64354;BME280;50681;53.334;-6.536;2024-01-15T10:01:20;101020.03;;;4.30;100.00
64354;BME280;50681;53.334;-6.536;2024-01-15T10:03:46;101031.44;;;4.13;100.00
64354;BME280;50681;53.334;-6.536;2024-01-15T10:06:15;101028.84;;;4.30;100.00
64354;BME280;50681;53.334;-6.536;2024-01-15T10:08:43;101028.06;;;4.30;100.00
64354;BME280;50681;53.334;-6.536;2024-01-15T10:11:12;101030.25;;;4.33;100.00
64354;BME280;50681;53.334;-6.536;2024-01-15T10:13:39;101032.69;;;4.46;100.00
64354;BME280;50681;53.334;-6.536;2024-01-15T10:16:05;101044.91;;;4.42;100.00
64354;BME280;50681;53.334;-6.536;2024-01-15T10:18:31;101032.72;;;4.22;100.00
64354;BME280;50681;53.334;-6.536;2024-01-15T10:21:00;101033.50;;;4.35;100.00
64354;BME280;50681;53.334;-6.536;2024-01-15T10:23:27;101030.84;;;3.99;100.00
64354;BME280;50681;53.334;-6.536;2024-01-15T10:25:52;101024.81;;;4.28;100.00
64354;BME280;50681;53.334;-6.536;2024-01-15T10:28:19;101023.41;;;4.37;100.00
64354;BME280;50681;53.334;-6.536;2024-01-15T10:30:44;101026.03;;;4.49;100.00
64354;BME280;50681;53.334;-6.536;2024-01-15T10:33:10;101032.53;;;4.53;100.00
64354;BME280;50681;53.334;-6.536;2024-01-15T10:35:40;101029.19;;;4.87;100.00
64354;BME280;50681;53.334;-6.536;2024-01-15T10:38:06;101034.25;;;4.59;100.00
64354;BME280;50681;53.334;-6.536;2024-01-15T10:40:34;101035.09;;;4.60;100.00
64354;BME280;50681;53.334;-6.536;2024-01-15T10:42:59;101029.84;;;4.65;100.00
64354;BME280;50681;53.334;-6.536;2024-01-15T10:45:25;101026.00;;;4.61;100.00
64354;BME280;50681;53.334;-6.536;2024-01-15T10:47:50;101042.16;;;4.66;100.00
64354;BME280;50681;53.334;-6.536;2024-01-15T10:50:16;101024.22;;;4.78;100.00
64354;BME280;50681;53.334;-6.536;2024-01-15T10:52:45;101042.56;;;4.87;100.00
64354;BME280;50681;53.334;-6.536;2024-01-15T10:55:11;101021.84;;;4.53;100.00
64354;BME280;50681;53.334;-6.536;2024-01-15T10:57:37;101034.41;;;4.52;100.00
64354;BME280;50681;53.334;-6.536;2024-01-15T11:00:04;101034.34;;;5.05;100.00
64354;BME280;50681;53.334;-6.536;2024-01-15T11:02:35;101039.50;;;4.95;100.00
64354;BME280;50681;53.334;-6.536;2024-01-15T11:05:01;101047.09;;;4.86;100.00
64354;BME280;50681;53.334;-6.536;2024-01-15T11:07:27;101047.31;;;4.44;100.00
64354;BME280;50681;53.334;-6.536;2024-01-15T11:09:52;101035.19;;;4.65;100.00
64354;BME280;50681;53.334;-6.536;2024-01-15T11:12:20;101044.75;;;5.19;100.00
64354;BME280;50681;53.334;-6.536;2024-01-15T11:14:47;101044.78;;;5.07;100.00
64354;BME280;50681;53.334;-6.536;2024-01-15T11:17:17;101052.88;;;5.24;100.00
64354;BME280;50681;53.334;-6.536;2024-01-15T11:19:44;101038.44;;;5.25;100.00
64354;BME280;50681;53.334;-6.536;2024-01-15T11:22:11;101032.91;;;5.32;100.00
64354;BME280;50681;53.334;-6.536;2024-01-15T11:25:17;101029.66;;;5.29;100.00
64354;BME280;50681;53.334;-6.536;2024-01-15T11:27:43;101036.63;;;5.13;100.00
64354;BME280;50681;53.334;-6.536;2024-01-15T11:30:11;101038.88;;;5.05;100.00
64354;BME280;50681;53.334;-6.536;2024-01-15T11:32:37;101036.94;;;5.00;100.00
64354;BME280;50681;53.334;-6.536;2024-01-15T11:35:03;101040.38;;;5.12;100.00
64354;BME280;50681;53.334;-6.536;2024-01-15T11:40:53;101036.75;;;5.70;100.00
64354;BME280;50681;53.334;-6.536;2024-01-15T11:43:18;101027.31;;;5.33;100.00
64354;BME280;50681;53.334;-6.536;2024-01-15T11:45:50;101028.88;;;5.80;100.00
64354;BME280;50681;53.334;-6.536;2024-01-15T11:48:17;101027.38;;;6.07;100.00
64354;BME280;50681;53.334;-6.536;2024-01-15T11:50:45;101023.25;;;5.82;100.00
64354;BME280;50681;53.334;-6.536;2024-01-15T11:53:16;101023.16;;;5.94;100.00
64354;BME280;50681;53.334;-6.536;2024-01-15T11:55:44;101025.44;;;5.85;100.00
64354;BME280;50681;53.334;-6.536;2024-01-15T11:58:11;101018.97;;;5.64;100.00
64354;BME280;50681;53.334;-6.536;2024-01-15T12:00:44;101027.78;;;5.98;100.00
64354;BME280;50681;53.334;-6.536;2024-01-15T12:03:10;101024.16;;;5.70;100.00
64354;BME280;50681;53.334;-6.536;2024-01-15T12:05:37;101029.09;;;5.79;100.00
64354;BME280;50681;53.334;-6.536;2024-01-15T12:08:03;101018.06;;;6.31;100.00
64354;BME280;50681;53.334;-6.536;2024-01-15T12:10:39;101023.84;;;6.01;100.00
64354;BME280;50681;53.334;-6.536;2024-01-15T12:13:13;101013.50;;;5.93;100.00
64354;BME280;50681;53.334;-6.536;2024-01-15T12:15:45;101007.16;;;6.38;100.00
64354;BME280;50681;53.334;-6.536;2024-01-15T12:18:14;101007.75;;;6.01;100.00
64354;BME280;50681;53.334;-6.536;2024-01-15T12:20:41;101017.22;;;6.09;100.00
64354;BME280;50681;53.334;-6.536;2024-01-15T12:23:27;101014.66;;;6.36;100.00
64354;BME280;50681;53.334;-6.536;2024-01-15T12:25:52;101019.25;;;6.18;100.00
64354;BME280;50681;53.334;-6.536;2024-01-15T12:28:18;101018.06;;;6.31;100.00
64354;BME280;50681;53.334;-6.536;2024-01-15T12:30:46;101015.66;;;6.30;100.00
64354;BME280;50681;53.334;-6.536;2024-01-15T12:33:34;101006.97;;;6.45;100.00
64354;BME280;50681;53.334;-6.536;2024-01-15T12:36:13;101000.09;;;6.54;100.00
64354;BME280;50681;53.334;-6.536;2024-01-15T12:38:38;100998.97;;;6.50;100.00